Catalina Flyer — WTD8887 — position and weather

sailwx.info

Track history (hours):
 
Tides and Currents Weather Stations Pressure Air Temp Water Temp Dewpoint Dewpoint Depression Visibility Wind Speed Wind Dir Waves Ship Positions

Catalina Flyer

Owner: CATALINA PASSENGER SERVICE INC, BALBOA, CA. More information available from US FCC via Universal Licensing System and Coast Guard Vessel Documentation Center.

Last reported at 2017-Oct-17 00:33 UTC. Time now 2017-Oct-17 10:00 UTC.
Position N 33°35' W 117°54'.

Length 36 m; draft 2.5 m.

Type: Passenger vessel. MMSI: 367001740.

Date/timePositionNaut miles runAvg speedWind from/ knotsBaromVisibWave heightAir tempDewpointWater temp
2017-Oct-17 00:33N 33°35' W 117°54'225.3
2017-Oct-17 00:29N 33°34' W 117°55'1325.6
2017-Oct-16 23:59N 33°27' W 118°08'10 1.4
2017-Oct-16 17:16N 33°22' W 118°18'726.0
2017-Oct-16 17:00N 33°26' W 118°11'1325.8
2017-Oct-16 16:29N 33°33' W 117°57'5 0.3
2017-Oct-16 00:46N 33°36' W 117°53'313.1
2017-Oct-16 00:30N 33°33' W 117°56'1325.1
2017-Oct-16 00:00N 33°27' W 118°08'10 8.0
2017-Oct-15 22:49N 33°22' W 118°18'927.4
2017-Oct-15 22:30N 33°26' W 118°09'1327.1
2017-Oct-15 22:01N 33°33' W 117°56'2 1.0
2017-Oct-15 19:59N 33°35' W 117°54'1327.1
2017-Oct-15 19:30N 33°30' W 118°09'1426.7
2017-Oct-15 19:00N 33°28' W 118°25'4 5.9
2017-Oct-15 18:15N 33°27' W 118°30'622.2
2017-Oct-15 18:00N 33°25' W 118°23'611.3
2017-Oct-15 17:30N 33°21' W 118°19'816.0
2017-Oct-15 17:00N 33°25' W 118°11'1325.2
2017-Oct-15 16:31N 33°32' W 117°59'611.2
2017-Oct-15 15:59N 33°36' W 117°54'0 0.0
2017-Oct-15 05:31N 33°36' W 117°54'0 0.0
2017-Oct-15 05:30N 33°36' W 117°54'1 1.4
2017-Oct-15 05:00N 33°36' W 117°53'1 1.4
2017-Oct-15 04:30N 33°36' W 117°54'1 1.5
2017-Oct-15 04:00N 33°36' W 117°53'1 1.4
2017-Oct-15 03:30N 33°36' W 117°54'1 1.2
2017-Oct-15 03:00N 33°36' W 117°53'1 1.0
2017-Oct-15 02:23N 33°36' W 117°54'0 0.0
2017-Oct-15 01:51N 33°36' W 117°54'0 0.0
2017-Oct-15 01:26N 33°36' W 117°54'0 0.0
2017-Oct-15 01:00N 33°36' W 117°54'2 4.3
2017-Oct-15 00:30N 33°34' W 117°54'1326.3
2017-Oct-15 00:00N 33°27' W 118°07'1223.3
2017-Oct-14 23:30N 33°21' W 118°19'0 0.0
2017-Oct-14 23:00N 33°21' W 118°19'0 0.0
2017-Oct-14 18:07N 33°21' W 118°19'0 0.9
2017-Oct-14 17:59N 33°21' W 118°19'0 0.0
2017-Oct-14 17:30N 33°21' W 118°19'1122.2
2017-Oct-14 17:00N 33°27' W 118°09'1325.4
2017-Oct-14 16:31N 33°34' W 117°56'3 0.2
2017-Oct-14 00:48N 33°36' W 117°54'2 5.4
2017-Oct-14 00:30N 33°35' W 117°53'1327.0
2017-Oct-14 00:00N 33°27' W 118°07'1224.4
2017-Oct-13 23:30N 33°21' W 118°19'0 0.0
2017-Oct-13 22:56N 33°21' W 118°19'1 2.1
2017-Oct-13 22:30N 33°22' W 118°19'9 7.0
2017-Oct-13 21:15N 33°28' W 118°27'626.8
2017-Oct-13 21:00N 33°30' W 118°20'1326.5
2017-Oct-13 20:30N 33°33' W 118°04'1019.7
2017-Oct-13 20:00N 33°36' W 117°53'1 0.7
2017-Oct-13 18:56N 33°36' W 117°54'511.0
2017-Oct-13 18:30N 33°33' W 117°58'1527.6
2017-Oct-13 17:57N 33°24' W 118°13'614.6
2017-Oct-13 17:30N 33°21' W 118°19'714.3
2017-Oct-13 17:00N 33°25' W 118°13'1326.7
2017-Oct-13 16:31N 33°32' W 117°59'6 0.4
2017-Oct-13 00:48N 33°36' W 117°54'2 5.4
2017-Oct-13 00:31N 33°35' W 117°53'1427.5
2017-Oct-13 00:00N 33°27' W 118°07'1224.2
2017-Oct-12 23:30N 33°21' W 118°19'0 0.0
2017-Oct-12 23:00N 33°21' W 118°19'0 0.2
2017-Oct-12 22:30N 33°21' W 118°19'0 0.0
2017-Oct-12 21:58N 33°21' W 118°19'0 0.0
2017-Oct-12 21:28N 33°21' W 118°19'0 0.0
2017-Oct-12 20:32N 33°21' W 118°19'0 0.0
2017-Oct-12 20:30N 33°21' W 118°19'0 0.0
2017-Oct-12 19:55N 33°21' W 118°19'0 0.0
2017-Oct-12 19:30N 33°21' W 118°19'0 0.0
2017-Oct-12 18:25N 33°21' W 118°19'0 0.1
2017-Oct-12 17:41N 33°21' W 118°19'0 0.0
2017-Oct-12 17:30N 33°21' W 118°19'918.2
2017-Oct-12 16:59N 33°26' W 118°10'1327.2
2017-Oct-12 16:31N 33°33' W 117°57'4 0.3
2017-Oct-12 00:32N 33°35' W 117°53'125.9
2017-Oct-12 00:31N 33°35' W 117°53'1327.0
2017-Oct-12 00:01N 33°27' W 118°07'1224.8
2017-Oct-11 23:31N 33°21' W 118°19'0 0.0
2017-Oct-11 23:00N 33°21' W 118°19'0 0.2
2017-Oct-11 22:30N 33°21' W 118°19'0 0.0
2017-Oct-11 22:00N 33°21' W 118°19'0 0.0
2017-Oct-11 21:30N 33°21' W 118°19'0 0.0
2017-Oct-11 21:00N 33°21' W 118°19'0 0.0
2017-Oct-11 20:30N 33°21' W 118°19'0 0.0
2017-Oct-11 20:00N 33°21' W 118°19'0 0.0
2017-Oct-11 19:30N 33°21' W 118°19'0 0.0
2017-Oct-11 19:00N 33°21' W 118°19'0 0.0
2017-Oct-11 18:27N 33°21' W 118°19'0 0.0
2017-Oct-11 18:00N 33°21' W 118°19'0 0.2
2017-Oct-11 17:30N 33°21' W 118°19'1019.5
2017-Oct-11 16:58N 33°27' W 118°09'2 0.1
2017-Oct-11 00:01N 33°27' W 118°07'1223.6
2017-Oct-10 23:31N 33°21' W 118°19'0 0.0
2017-Oct-10 23:00N 33°21' W 118°19'0 0.2
2017-Oct-10 22:30N 33°21' W 118°19'0 0.1
2017-Oct-10 22:00N 33°21' W 118°19'0 0.0
2017-Oct-10 21:30N 33°21' W 118°19'0 0.0
2017-Oct-10 21:00N 33°21' W 118°19'0 0.0
2017-Oct-10 20:30N 33°21' W 118°19'0 0.0
2017-Oct-10 20:00N 33°21' W 118°19'0 0.0
2017-Oct-10 19:30N 33°21' W 118°19'0 0.0
2017-Oct-10 19:00N 33°21' W 118°19'0 0.0
2017-Oct-10 18:30N 33°21' W 118°19'0 0.0
2017-Oct-10 18:00N 33°21' W 118°19'0 0.2
2017-Oct-10 17:30N 33°21' W 118°19'1121.3
2017-Oct-10 17:01N 33°27' W 118°09'1325.8
2017-Oct-10 16:31N 33°34' W 117°56'3 6.1
2017-Oct-10 16:00N 33°36' W 117°54'0 0.0
2017-Oct-10 15:30N 33°36' W 117°54'0 0.0
2017-Oct-10 00:59N 33°36' W 117°54'3 5.9
2017-Oct-10 00:31N 33°34' W 117°55'1325.7
2017-Oct-10 00:01N 33°27' W 118°08'1121.9
2017-Oct-09 23:31N 33°21' W 118°19'0 0.0
2017-Oct-09 23:01N 33°21' W 118°19'0 0.0
2017-Oct-09 17:46N 33°21' W 118°19'0 1.3
2017-Oct-09 17:30N 33°21' W 118°19'1223.9
2017-Oct-09 16:59N 33°28' W 118°07'1225.8
2017-Oct-09 16:31N 33°34' W 117°54'2 2.4
2017-Oct-09 15:44N 33°36' W 117°54'0 0.0
2017-Oct-09 00:59N 33°36' W 117°54'510.5
2017-Oct-09 00:31N 33°33' W 117°58'1224.8
2017-Oct-09 00:01N 33°26' W 118°10'917.4
2017-Oct-08 23:30N 33°21' W 118°19'0 0.6
2017-Oct-08 23:00N 33°21' W 118°19'0 0.0
2017-Oct-08 18:04N 33°21' W 118°19'0 0.0
2017-Oct-08 18:00N 33°21' W 118°19'0 0.9
2017-Oct-08 17:30N 33°21' W 118°19'919.0
2017-Oct-08 17:01N 33°26' W 118°10'1224.8
2017-Oct-08 16:31N 33°33' W 117°57'5 9.0
2017-Oct-08 16:00N 33°36' W 117°54'0 0.0
2017-Oct-08 01:03N 33°36' W 117°54'0 0.0
2017-Oct-08 01:00N 33°36' W 117°54'5 9.6
2017-Oct-08 00:30N 33°33' W 117°58'1224.9
2017-Oct-08 00:01N 33°25' W 118°10'918.5
2017-Oct-07 23:31N 33°21' W 118°19'0 0.4
2017-Oct-07 23:00N 33°21' W 118°19'0 0.3
2017-Oct-07 22:30N 33°21' W 118°19'0 0.0
2017-Oct-07 22:00N 33°21' W 118°19'0 0.0
2017-Oct-07 21:30N 33°21' W 118°19'0 0.0
2017-Oct-07 21:00N 33°21' W 118°19'0 0.0
2017-Oct-07 20:30N 33°21' W 118°19'0 0.0
2017-Oct-07 20:00N 33°21' W 118°19'0 0.0
2017-Oct-07 18:14N 33°21' W 118°19'0 0.4
2017-Oct-07 18:01N 33°21' W 118°19'0 0.2
2017-Oct-07 17:30N 33°21' W 118°19'1123.0
2017-Oct-07 17:01N 33°27' W 118°08'1224.7
2017-Oct-07 16:31N 33°34' W 117°55'3 5.5
2017-Oct-07 16:00N 33°36' W 117°54'0 0.0
2017-Oct-07 15:29N 33°36' W 117°54'0 0.0
2017-Oct-07 00:57N 33°36' W 117°54'  
Track history (hours):
 
Tides and Currents Weather Stations Pressure Air Temp Water Temp Dewpoint Dewpoint Depression Visibility Wind Speed Wind Dir Waves Ship Positions

Catalina Flyer

Owner: CATALINA PASSENGER SERVICE INC, BALBOA, CA. More information available from US FCC via Universal Licensing System and Coast Guard Vessel Documentation Center.

Last reported at 2017-Oct-17 00:33 UTC. Time now 2017-Oct-17 10:00 UTC.
Position N 33°35' W 117°54'.

Length 36 m; draft 2.5 m.

Type: Passenger vessel. MMSI: 367001740.

Date/timePositionNaut miles runAvg speedWind from/ knotsBaromVisibWave heightAir tempDewpointWater temp
2017-Oct-17 00:33N 33°35' W 117°54'225.3
2017-Oct-17 00:29N 33°34' W 117°55'1325.6
2017-Oct-16 23:59N 33°27' W 118°08'10 1.4
2017-Oct-16 17:16N 33°22' W 118°18'726.0
2017-Oct-16 17:00N 33°26' W 118°11'1325.8
2017-Oct-16 16:29N 33°33' W 117°57'5 0.3
2017-Oct-16 00:46N 33°36' W 117°53'313.1
2017-Oct-16 00:30N 33°33' W 117°56'1325.1
2017-Oct-16 00:00N 33°27' W 118°08'10 8.0
2017-Oct-15 22:49N 33°22' W 118°18'927.4
2017-Oct-15 22:30N 33°26' W 118°09'1327.1
2017-Oct-15 22:01N 33°33' W 117°56'2 1.0
2017-Oct-15 19:59N 33°35' W 117°54'1327.1
2017-Oct-15 19:30N 33°30' W 118°09'1426.7
2017-Oct-15 19:00N 33°28' W 118°25'4 5.9
2017-Oct-15 18:15N 33°27' W 118°30'622.2
2017-Oct-15 18:00N 33°25' W 118°23'611.3
2017-Oct-15 17:30N 33°21' W 118°19'816.0
2017-Oct-15 17:00N 33°25' W 118°11'1325.2
2017-Oct-15 16:31N 33°32' W 117°59'611.2
2017-Oct-15 15:59N 33°36' W 117°54'0 0.0
2017-Oct-15 05:31N 33°36' W 117°54'0 0.0
2017-Oct-15 05:30N 33°36' W 117°54'1 1.4
2017-Oct-15 05:00N 33°36' W 117°53'1 1.4
2017-Oct-15 04:30N 33°36' W 117°54'1 1.5
2017-Oct-15 04:00N 33°36' W 117°53'1 1.4
2017-Oct-15 03:30N 33°36' W 117°54'1 1.2
2017-Oct-15 03:00N 33°36' W 117°53'1 1.0
2017-Oct-15 02:23N 33°36' W 117°54'0 0.0
2017-Oct-15 01:51N 33°36' W 117°54'0 0.0
2017-Oct-15 01:26N 33°36' W 117°54'0 0.0
2017-Oct-15 01:00N 33°36' W 117°54'2 4.3
2017-Oct-15 00:30N 33°34' W 117°54'1326.3
2017-Oct-15 00:00N 33°27' W 118°07'1223.3
2017-Oct-14 23:30N 33°21' W 118°19'0 0.0
2017-Oct-14 23:00N 33°21' W 118°19'0 0.0
2017-Oct-14 18:07N 33°21' W 118°19'0 0.9
2017-Oct-14 17:59N 33°21' W 118°19'0 0.0
2017-Oct-14 17:30N 33°21' W 118°19'1122.2
2017-Oct-14 17:00N 33°27' W 118°09'1325.4
2017-Oct-14 16:31N 33°34' W 117°56'3 0.2
2017-Oct-14 00:48N 33°36' W 117°54'2 5.4
2017-Oct-14 00:30N 33°35' W 117°53'1327.0
2017-Oct-14 00:00N 33°27' W 118°07'1224.4
2017-Oct-13 23:30N 33°21' W 118°19'0 0.0
2017-Oct-13 22:56N 33°21' W 118°19'1 2.1
2017-Oct-13 22:30N 33°22' W 118°19'9 7.0
2017-Oct-13 21:15N 33°28' W 118°27'626.8
2017-Oct-13 21:00N 33°30' W 118°20'1326.5
2017-Oct-13 20:30N 33°33' W 118°04'1019.7
2017-Oct-13 20:00N 33°36' W 117°53'1 0.7
2017-Oct-13 18:56N 33°36' W 117°54'511.0
2017-Oct-13 18:30N 33°33' W 117°58'1527.6
2017-Oct-13 17:57N 33°24' W 118°13'614.6
2017-Oct-13 17:30N 33°21' W 118°19'714.3
2017-Oct-13 17:00N 33°25' W 118°13'1326.7
2017-Oct-13 16:31N 33°32' W 117°59'6 0.4
2017-Oct-13 00:48N 33°36' W 117°54'2 5.4
2017-Oct-13 00:31N 33°35' W 117°53'1427.5
2017-Oct-13 00:00N 33°27' W 118°07'1224.2
2017-Oct-12 23:30N 33°21' W 118°19'0 0.0
2017-Oct-12 23:00N 33°21' W 118°19'0 0.2
2017-Oct-12 22:30N 33°21' W 118°19'0 0.0
2017-Oct-12 21:58N 33°21' W 118°19'0 0.0
2017-Oct-12 21:28N 33°21' W 118°19'0 0.0
2017-Oct-12 20:32N 33°21' W 118°19'0 0.0
2017-Oct-12 20:30N 33°21' W 118°19'0 0.0
2017-Oct-12 19:55N 33°21' W 118°19'0 0.0
2017-Oct-12 19:30N 33°21' W 118°19'0 0.0
2017-Oct-12 18:25N 33°21' W 118°19'0 0.1
2017-Oct-12 17:41N 33°21' W 118°19'0 0.0
2017-Oct-12 17:30N 33°21' W 118°19'918.2
2017-Oct-12 16:59N 33°26' W 118°10'1327.2
2017-Oct-12 16:31N 33°33' W 117°57'4 0.3
2017-Oct-12 00:32N 33°35' W 117°53'125.9
2017-Oct-12 00:31N 33°35' W 117°53'1327.0
2017-Oct-12 00:01N 33°27' W 118°07'1224.8
2017-Oct-11 23:31N 33°21' W 118°19'0 0.0
2017-Oct-11 23:00N 33°21' W 118°19'0 0.2
2017-Oct-11 22:30N 33°21' W 118°19'0 0.0
2017-Oct-11 22:00N 33°21' W 118°19'0 0.0
2017-Oct-11 21:30N 33°21' W 118°19'0 0.0
2017-Oct-11 21:00N 33°21' W 118°19'0 0.0
2017-Oct-11 20:30N 33°21' W 118°19'0 0.0
2017-Oct-11 20:00N 33°21' W 118°19'0 0.0
2017-Oct-11 19:30N 33°21' W 118°19'0 0.0
2017-Oct-11 19:00N 33°21' W 118°19'0 0.0
2017-Oct-11 18:27N 33°21' W 118°19'0 0.0
2017-Oct-11 18:00N 33°21' W 118°19'0 0.2
2017-Oct-11 17:30N 33°21' W 118°19'1019.5
2017-Oct-11 16:58N 33°27' W 118°09'2 0.1
2017-Oct-11 00:01N 33°27' W 118°07'1223.6
2017-Oct-10 23:31N 33°21' W 118°19'0 0.0
2017-Oct-10 23:00N 33°21' W 118°19'0 0.2
2017-Oct-10 22:30N 33°21' W 118°19'0 0.1
2017-Oct-10 22:00N 33°21' W 118°19'0 0.0
2017-Oct-10 21:30N 33°21' W 118°19'0 0.0
2017-Oct-10 21:00N 33°21' W 118°19'0 0.0
2017-Oct-10 20:30N 33°21' W 118°19'0 0.0
2017-Oct-10 20:00N 33°21' W 118°19'0 0.0
2017-Oct-10 19:30N 33°21' W 118°19'0 0.0
2017-Oct-10 19:00N 33°21' W 118°19'0 0.0
2017-Oct-10 18:30N 33°21' W 118°19'0 0.0
2017-Oct-10 18:00N 33°21' W 118°19'0 0.2
2017-Oct-10 17:30N 33°21' W 118°19'1121.3
2017-Oct-10 17:01N 33°27' W 118°09'1325.8
2017-Oct-10 16:31N 33°34' W 117°56'3 6.1
2017-Oct-10 16:00N 33°36' W 117°54'0 0.0
2017-Oct-10 15:30N 33°36' W 117°54'0 0.0
2017-Oct-10 00:59N 33°36' W 117°54'3 5.9
2017-Oct-10 00:31N 33°34' W 117°55'1325.7
2017-Oct-10 00:01N 33°27' W 118°08'1121.9
2017-Oct-09 23:31N 33°21' W 118°19'0 0.0
2017-Oct-09 23:01N 33°21' W 118°19'0 0.0
2017-Oct-09 17:46N 33°21' W 118°19'0 1.3
2017-Oct-09 17:30N 33°21' W 118°19'1223.9
2017-Oct-09 16:59N 33°28' W 118°07'1225.8
2017-Oct-09 16:31N 33°34' W 117°54'2 2.4
2017-Oct-09 15:44N 33°36' W 117°54'0 0.0
2017-Oct-09 00:59N 33°36' W 117°54'510.5
2017-Oct-09 00:31N 33°33' W 117°58'1224.8
2017-Oct-09 00:01N 33°26' W 118°10'917.4
2017-Oct-08 23:30N 33°21' W 118°19'0 0.6
2017-Oct-08 23:00N 33°21' W 118°19'0 0.0
2017-Oct-08 18:04N 33°21' W 118°19'0 0.0
2017-Oct-08 18:00N 33°21' W 118°19'0 0.9
2017-Oct-08 17:30N 33°21' W 118°19'919.0
2017-Oct-08 17:01N 33°26' W 118°10'1224.8
2017-Oct-08 16:31N 33°33' W 117°57'5 9.0
2017-Oct-08 16:00N 33°36' W 117°54'0 0.0
2017-Oct-08 01:03N 33°36' W 117°54'0 0.0
2017-Oct-08 01:00N 33°36' W 117°54'5 9.6
2017-Oct-08 00:30N 33°33' W 117°58'1224.9
2017-Oct-08 00:01N 33°25' W 118°10'918.5
2017-Oct-07 23:31N 33°21' W 118°19'0 0.4
2017-Oct-07 23:00N 33°21' W 118°19'0 0.3
2017-Oct-07 22:30N 33°21' W 118°19'0 0.0
2017-Oct-07 22:00N 33°21' W 118°19'0 0.0
2017-Oct-07 21:30N 33°21' W 118°19'0 0.0
2017-Oct-07 21:00N 33°21' W 118°19'0 0.0
2017-Oct-07 20:30N 33°21' W 118°19'0 0.0
2017-Oct-07 20:00N 33°21' W 118°19'0 0.0
2017-Oct-07 18:14N 33°21' W 118°19'0 0.4
2017-Oct-07 18:01N 33°21' W 118°19'0 0.2
2017-Oct-07 17:30N 33°21' W 118°19'1123.0
2017-Oct-07 17:01N 33°27' W 118°08'1224.7
2017-Oct-07 16:31N 33°34' W 117°55'3 5.5
2017-Oct-07 16:00N 33°36' W 117°54'0 0.0
2017-Oct-07 15:29N 33°36' W 117°54'0 0.0
2017-Oct-07 00:57N 33°36' W 117°54'  

Dump ship's entire track history